Pilot Magazine UKGA

About You

Log In Register UKGA membership

Flight planning

Flight planning New flightplan NOTAM map LARS map & NOTAMs Danger area, mil. & TRA activations Weather map GPS route download Find waypoints Your waypoints New waypoint

Forums

Forums Currently discussing "yoke and pedals forces and behaviour for flight simulator force feedback"

Other items

Articles Events Links News Surveys Tips Other users Feedback UKGA membership About UKGA

METARs

UK

EGAA 192350Z 05002KT 9999 FEW042 07/06 Q1018
EGAC 192350Z AUTO 17003KT 9999 NCD 08/05 Q1018
EGAE 191620Z 21009KT 9999 -RADZ FEW014 BKN023 11/08 Q1018
EGBB 192350Z 15003KT CAVOK 07/03 Q1018
EGBJ 191650Z 18003KT CAVOK 17/02 Q1018
EGCC 192350Z AUTO VRB02KT 9999 NCD 08/02 Q1018 NOSIG
EGCK 192350Z AUTO 06002KT 9999 NCD 06/03 Q1019
EGCN 192350Z AUTO 09002KT 9999 NCD 05/02 Q1020
EGDM 192250Z AUTO 16002KT 9999 NCD 05/00 Q1018
EGDR 192250Z AUTO 09006KT 9999 // BKN130/// 07/05 Q1018
EGDY 192250Z AUTO 13003KT 9999 BKN120/// 04/02 Q1019
EGEC 191020Z 16014KT 9999 FEW012 10/07 Q1020
EGFF 192350Z AUTO 30003KT 9999 NCD 07/05 Q1018
EGGD 192350Z AUTO 19001KT 9999 NCD 07/00 Q1018
EGGP 192150Z 30006KT CAVOK 11/06 Q1018
EGGW 192350Z AUTO 13007KT 9999 NCD 06/03 Q1019
EGHC 191650Z 14011KT 9999 FEW015 10/07 Q1018
EGHE 191650Z 18006KT 9999 FEW010 12/07 Q1018
EGHH 191950Z 00000KT CAVOK 07/02 Q1019
EGHI 191650Z 21007KT 180V240 CAVOK 14/03 Q1019 
EGHQ 192350Z AUTO 12005KT 9999 NCD 07/05 Q1018
EGJA 191720Z 07010KT CAVOK 10/05 Q1019
EGJB 192350Z 12004KT CAVOK 07/05 Q1018
EGJJ 192350Z AUTO 10005KT 9999 NCD 07/03 Q1018
EGKA 191850Z 17003KT 8000 NSC 09/05 Q1019
EGKB 192120Z 19006KT CAVOK 08/05 Q1019 
EGKK 192350Z VRB01KT 9000 NSC 05/03 Q1019
EGLC 192350Z AUTO 09005KT 9999 NCD 07/03 Q1019
EGLF 192350Z AUTO 20002KT 9999 NCD 03/M01 Q1018
EGLL 192350Z AUTO VRB01KT 9999 NCD 07/02 Q1019 NOSIG
EGMC 192350Z 31002KT 4000 BR NSC 03/02 Q1019
EGMD 192350Z AUTO 02004KT 3100 BR NCD 02/01 Q1019
EGNH 191950Z 02008KT CAVOK 11/00 Q1018
EGNJ 192350Z AUTO VRB02KT 9999 NCD 04/03 Q1020
EGNM 191550Z 10006KT 030V140 CAVOK 15/01 Q1019
EGNO 191650Z 35007KT 320V020 CAVOK 16/M01 Q1018
EGNR 191820Z VRB03KT CAVOK 15/00 Q1018
EGNS 192350Z 06005KT CAVOK 06/01 Q1018
EGNT 192350Z AUTO 11001KT 9999 NCD 03/02 Q1019
EGNV 192050Z 15007KT CAVOK 08/03 Q1019
EGNX 192350Z 11005KT CAVOK 07/03 Q1018
EGOM 191350Z 20004KT 9999 SCT060 14/01 Q1019 BLU NOSIG
EGOP 192250Z AUTO 34006KT 9999 // OVC090/// 09/04 Q1018
EGOS 192250Z 34006KT CAVOK 07/00 Q1018 BECMG 7000 HZ RMK BLU BECMG WHT
EGOV 192250Z AUTO 09003KT 9999 BKN170/// 06/03 Q1019
EGOW 191350Z 20005KT CAVOK 18/M01 Q1020 RMK BLU
EGPA 192350Z 22003KT CAVOK 08/05 Q1016
EGPB 192350Z 20010KT 9999 FEW035 07/05 Q1016
EGPC 192350Z AUTO 19007KT 9999 NCD 09/04 Q1016
EGPD 192350Z AUTO 15004KT 9999 NCD 06/04 Q1017 NOSIG
EGPE 192350Z AUTO 22002KT 9999 -RA BKN043/// 08/05 Q1017
EGPF 192350Z AUTO 28004KT 9999 FEW038 08/04 Q1019
EGPH 192350Z 26003KT CAVOK 07/04 Q1018
EGPI 192250Z AUTO 18005KT 9999 -RA SCT039/// 07/06 Q1018
EGPK 192350Z 00000KT CAVOK 08/03 Q1019
EGPL 192350Z AUTO 35012KT 4800 -RA BKN005/// OVC027/// 07/06 Q1017
EGPN 191450Z 11007KT 9999 FEW040 15/06 Q1019
EGPO 192350Z AUTO 34011KT 9999 SCT003/// BKN011/// OVC017/// 07/06 Q1016
EGPU 192250Z AUTO 20010KT 8000 -DZ SCT009/// BKN037/// 08/08 Q1017
EGQA 191650Z 22010KT 9999 FEW030 BKN050 15/// Q1017 RMK BLU
EGQK 192250Z AUTO 25006KT 9999 FEW110/// OVC150/// 09/04 Q1017
EGQL 192350Z 25004KT CAVOK 08/04 Q1018 BLU
EGQM 192350Z AUTO 24003KT 8000 HZ FEW190/// 05/03 Q1018
EGQS 192350Z 22004KT 9999 FEW045 SCT070 BKN120 08/04 Q1017 RMK BLU
EGSC 191650Z 09005KT 050V120 9999 FEW040 15/04 Q1019
EGSH 192350Z AUTO 00000KT 0100 FG OVC000/// 04/04 Q1020
EGSS 192350Z AUTO 10006KT 9999 NCD 05/02 Q1019
EGSY 191520Z 12004KT 070V180 CAVOK 15/03 Q1019
EGTC 192050Z 14004KT 110V180 CAVOK 10/04 Q1019
EGTE 192320Z VRB02KT CAVOK 02/01 Q1018
EGTK 192050Z 03003KT CAVOK 12/03 Q1018
EGUB 192250Z AUTO 18003KT 9999 // NCD 05/01 Q1018
EGUL 192356Z AUTO 00000KT M R06/P1500 DZ CLR 03/01 A3010 RMK AO2 SLP197 P0000 60000 T00330009 10146 20033 401681017 55002 $
EGUN 192356Z AUTO 10005KT 9999 CLR 05/05 A3009 RMK AO2 SLP193 T00510051 10140 20048 401751007 55003 FZRANO $
EGUW 192250Z AUTO 07001KT 5000 HZ NCD 04/02 Q1019
EGVA 192356Z AUTO 00000KT 9999 CLR 06/01 A3005 RMK AO2 SLP180 T00610014 10151 20061 401630006 58001 CHINO RWY27 $
EGVN 192350Z 21002KT CAVOK 07/01 Q1018 NOSIG RMK BLU BLU
EGVO 192250Z AUTO 18001KT 9999 NCD 06/M01 Q1018
EGVP 192250Z AUTO 28002KT 9999 NCD 05/01 Q1018
EGWU 192320Z 13002KT CAVOK 07/02 Q1019 BECMG 6000 BR RMK BLU BECMG WHT
EGXC 192350Z 09007KT CAVOK 04/04 Q1019 RMK BLU
EGXE 192250Z AUTO 17006KT 9999 NCD 07/03 Q1019
EGXP 192250Z AUTO 12006KT 9999 // NCD 05/01 Q1019
EGXS 192250Z AUTO 18003KT 3800 // FEW003/// 02/02 Q1019
EGXT 192250Z AUTO 09004KT 9999 NCD 07/04 Q1018
EGXU 192250Z AUTO 11003KT 9999 NCD 06/03 Q1019
EGXV 192350Z AUTO 04001KT 0100 FG VV/// 03/02 Q1019
EGXW 192250Z AUTO 12007KT 9999 NCD 05/02 Q1019
EGXZ 192350Z AUTO 14004KT 9999 NCD 03/02 Q1019
EGYD 192250Z AUTO 10005KT 9000 // NCD 04/03 Q1019
EGYE 191450Z 11006KT CAVOK ///// Q1020 RMK BLU
EGYM 192350Z 10003KT CAVOK 05/03 Q1019 BLU
EGYP 192350Z 06003KT 9999 BKN008 13/11 Q1001

About You

Log In Register UKGA membership

Airfields

Interactive airfield map Search by name Search by postcode Search by location Fuel prices Pilot reviews Latest
(No favourites selected)

Flight planning

Flight planning New flightplan NOTAM map LARS map & NOTAMs Danger area, mil. & TRA activations Weather map GPS route download Find waypoints Your waypoints New waypoint

Forums

Forums Currently discussing "yoke and pedals forces and behaviour for flight simulator force feedback"

Other items

Articles Events Links News Surveys Tips Other users Feedback UKGA membership About UKGA